Time;durP1;ratioP1;P1;durP2;ratioP2;P2;SDS_P1;SDS_P2;PMS_P1;PMS_P2;Temp;Humidity;BMP_temperature;BMP_pressure;BME280_temperature;BME280_humidity;BME280_pressure;Samples;Min_cycle;Max_cycle;Signal;HPM_P1;HPM_P2
2023/06/09 00:09:39;;;;;;;15.32;3.92;;;;;;;17.14;72.35;101381.53;5683999;23;20986;31
2023/06/09 00:12:05;;;;;;;17.88;4.35;;;;;;;17.03;72.81;101375.03;5222635;23;20061;-74
2023/06/09 00:14:30;;;;;;;12.10;4.97;;;;;;;17.05;72.47;101378.31;5471924;23;20508;-75
2023/06/09 00:17:13;;;;;;;9.20;3.45;;;;;;;17.03;72.44;101381.25;5834887;22;20028;31
2023/06/09 00:19:41;;;;;;;7.93;3.97;;;;;;;16.96;72.71;101375.09;5013083;22;20057;-71
2023/06/09 00:22:13;;;;;;;13.82;4.20;;;;;;;16.91;72.86;101369.56;5011230;28;20044;-71
2023/06/09 00:24:39;;;;;;;;;;;;;;;16.95;71.63;101369.94;5011385;28;20033;-71
2023/06/09 00:27:06;;;;;;;10.70;4.07;;;;;;;16.88;72.89;101364.63;5011030;28;20294;-71
2023/06/09 00:29:31;;;;;;;11.05;4.25;;;;;;;16.84;72.94;101371.50;4993376;28;20018;-71
2023/06/09 00:31:57;;;;;;;13.23;4.63;;;;;;;16.76;72.77;101363.72;4993234;28;20079;-71
2023/06/09 00:34:22;;;;;;;11.25;3.95;;;;;;;16.79;73.15;101374.06;5010742;28;20025;-71
2023/06/09 00:36:48;;;;;;;10.32;3.88;;;;;;;16.70;72.85;101360.03;5010768;28;20042;-71
2023/06/09 00:39:13;;;;;;;8.32;3.88;;;;;;;16.72;73.02;101362.53;4993120;28;20492;-71
2023/06/09 00:41:40;;;;;;;7.18;3.65;;;;;;;16.74;73.29;101368.50;4993017;28;20053;-71
2023/06/09 00:44:06;;;;;;;12.80;4.60;;;;;;;16.68;73.72;101367.53;5010540;28;20037;-71
2023/06/09 00:46:32;;;;;;;9.50;3.25;;;;;;;16.63;74.23;101368.19;4992914;28;20037;-71
2023/06/09 00:48:58;;;;;;;12.93;4.05;;;;;;;16.58;74.18;101367.22;5009976;28;20392;-71
2023/06/09 00:51:24;;;;;;;8.20;3.60;;;;;;;16.60;73.82;101376.72;5010571;28;20034;-71
2023/06/09 00:53:50;;;;;;;10.23;3.70;;;;;;;16.56;73.85;101366.63;5010393;28;20542;-71
2023/06/09 00:56:16;;;;;;;7.18;3.28;;;;;;;16.43;74.17;101346.88;4992763;28;20157;-71
2023/06/09 00:58:41;;;;;;;8.70;3.63;;;;;;;16.42;74.97;101365.94;4976561;28;20038;-71
2023/06/09 01:01:08;;;;;;;9.82;4.03;;;;;;;16.42;74.33;101365.94;5010276;28;20164;-71
2023/06/09 01:03:33;;;;;;;7.32;3.90;;;;;;;16.42;74.35;101365.94;5009865;28;20041;-71
2023/06/09 01:06:12;;;;;;;7.45;3.45;;;;;;;16.39;74.16;101367.19;5008820;28;20034;-71
2023/06/09 01:08:43;;;;;;;12.27;3.63;;;;;;;16.41;73.82;101361.59;5009847;28;20067;-71
2023/06/09 01:11:22;;;;;;;9.55;3.63;;;;;;;16.37;74.54;101363.94;5009886;28;20034;-71
2023/06/09 01:14:13;;;;;;;11.68;4.78;;;;;;;16.35;73.92;101363.31;5009891;28;20033;-71
2023/06/09 01:16:54;;;;;;;13.18;4.30;;;;;;;16.27;73.98;101346.63;5008678;28;20030;-71
2023/06/09 01:19:36;;;;;;;9.73;4.07;;;;;;;16.27;74.14;101350.16;5009218;28;20088;-71
2023/06/09 01:22:06;;;;;;;9.70;3.90;;;;;;;16.25;74.30;101359.50;5009508;28;20476;-71
2023/06/09 01:24:32;;;;;;;10.63;4.32;;;;;;;16.27;74.77;101363.63;5009395;28;20523;-71
2023/06/09 01:27:01;;;;;;;7.15;3.83;;;;;;;16.22;75.09;101358.06;5009640;28;20029;-71
2023/06/09 01:29:28;;;;;;;12.73;4.72;;;;;;;16.15;75.30;101352.75;5008662;28;20080;-71
2023/06/09 01:31:54;;;;;;;8.05;3.50;;;;;;;16.14;75.10;101351.09;4990482;28;20041;-71
2023/06/09 01:34:21;;;;;;;8.00;3.88;;;;;;;16.11;75.44;101353.41;4990543;28;20432;-71
2023/06/09 01:36:47;;;;;;;10.60;3.88;;;;;;;16.12;75.12;101358.56;4990518;28;20081;-71
2023/06/09 01:39:13;;;;;;;8.88;4.18;;;;;;;16.05;75.42;101347.03;4990626;28;20034;-71
2023/06/09 01:41:40;;;;;;;9.68;4.15;;;;;;;16.10;75.46;101349.06;4990510;28;20029;-71
2023/06/09 01:44:05;;;;;;;12.95;4.05;;;;;;;16.04;75.26;101342.72;4990367;28;20378;-71
2023/06/09 01:46:31;;;;;;;15.05;4.60;;;;;;;16.00;75.55;101344.19;4990438;28;20101;-71
2023/06/09 01:49:08;;;;;;;8.02;3.90;;;;;;;15.93;76.34;101341.56;4956686;28;20137;-71
2023/06/09 01:51:38;;;;;;;10.63;4.35;;;;;;;15.91;76.50;101349.03;4990114;28;20027;-71
2023/06/09 01:54:10;;;;;;;12.57;4.32;;;;;;;15.89;76.12;101352.97;4990270;28;20030;-71
2023/06/09 01:57:02;;;;;;;8.60;3.63;;;;;;;15.88;75.46;101343.28;4990292;28;20393;-70
2023/06/09 01:59:35;;;;;;;12.30;4.95;;;;;;;15.80;76.88;101343.50;5004302;28;20133;-71
2023/06/09 02:02:03;;;;;;;10.15;4.72;;;;;;;15.72;77.19;101344.63;5009193;28;20384;-71
2023/06/09 02:04:30;;;;;;;15.85;5.35;;;;;;;15.66;77.29;101343.59;4989793;28;20022;-71
2023/06/09 02:06:57;;;;;;;12.88;4.07;;;;;;;15.63;77.76;101335.16;5008707;28;20036;-71
2023/06/09 02:09:22;;;;;;;10.35;4.00;;;;;;;15.61;77.96;101327.28;4991273;28;20033;-71
2023/06/09 02:11:52;;;;;;;7.78;4.35;;;;;;;15.60;77.98;101331.03;5008777;28;20061;-71
2023/06/09 02:14:18;;;;;;;8.52;4.88;;;;;;;15.55;78.09;101333.53;4997332;28;20392;-71
2023/06/09 02:16:44;;;;;;;11.27;4.82;;;;;;;15.49;78.45;101321.81;4989975;28;20036;-71
2023/06/09 02:19:12;;;;;;;11.35;4.50;;;;;;;15.51;78.36;101324.25;4989148;28;20624;-71
2023/06/09 02:21:38;;;;;;;15.73;5.88;;;;;;;15.47;78.48;101329.25;4990023;28;20481;-71
2023/06/09 02:24:03;;;;;;;14.52;4.82;;;;;;;15.44;79.31;101324.31;4989893;28;20037;-71
2023/06/09 02:26:28;;;;;;;15.32;5.18;;;;;;;15.40;79.25;101319.59;4989803;28;20030;-71
2023/06/09 02:28:54;;;;;;;11.82;4.88;;;;;;;15.40;79.42;101314.22;4972422;28;20097;-71
2023/06/09 02:31:20;;;;;;;14.73;4.38;;;;;;;15.43;79.13;101321.84;4972563;28;20557;-71
2023/06/09 02:33:45;;;;;;;9.93;4.35;;;;;;;15.42;79.17;101325.56;4972480;28;20500;-71
2023/06/09 02:36:13;;;;;;;15.18;4.50;;;;;;;15.36;79.53;101321.06;4972432;28;20038;-71
2023/06/09 02:38:39;;;;;;;11.70;4.90;;;;;;;15.34;79.88;101322.09;4989967;28;20038;-71
2023/06/09 02:41:04;;;;;;;9.32;4.55;;;;;;;15.30;79.93;101320.91;5008558;28;20502;-71
2023/06/09 02:43:29;;;;;;;13.07;4.45;;;;;;;15.00;80.25;101284.91;4990650;28;20037;-71
2023/06/09 02:45:55;;;;;;;11.23;5.47;;;;;;;15.24;80.49;101318.25;5008617;28;20025;-71
2023/06/09 02:48:20;;;;;;;10.60;4.20;;;;;;;15.18;80.09;101316.41;4990889;28;20400;-71
2023/06/09 02:50:46;;;;;;;13.05;5.10;;;;;;;15.10;80.80;101321.00;4990897;28;20113;-71
2023/06/09 02:53:11;;;;;;;11.98;4.13;;;;;;;15.09;81.52;101324.75;5008452;28;20017;-71
2023/06/09 02:55:37;;;;;;;9.77;4.20;;;;;;;15.06;81.90;101327.84;5008211;28;20141;-71
2023/06/09 02:58:02;;;;;;;7.90;3.35;;;;;;;15.04;82.03;101326.44;5008460;28;20026;-71
2023/06/09 03:00:27;;;;;;;12.52;4.38;;;;;;;15.00;82.10;101327.88;5008412;28;20499;-71
2023/06/09 03:02:53;;;;;;;10.23;3.95;;;;;;;14.99;82.26;101335.13;5008310;28;20369;-71
2023/06/09 03:05:20;;;;;;;13.38;4.35;;;;;;;14.96;82.73;101335.56;5008123;28;20036;-71
2023/06/09 03:07:48;;;;;;;10.85;4.68;;;;;;;14.89;83.28;101329.38;5008134;28;20480;-71
2023/06/09 03:10:13;;;;;;;9.07;4.32;;;;;;;14.86;83.49;101322.56;5008128;28;20145;-71
2023/06/09 03:12:38;;;;;;;10.93;4.40;;;;;;;14.81;83.06;101316.19;5008195;28;20560;-71
2023/06/09 03:15:04;;;;;;;9.10;3.72;;;;;;;14.75;83.97;101328.63;4990879;28;20041;-71
2023/06/09 03:17:30;;;;;;;14.60;4.82;;;;;;;14.68;84.51;101330.50;5007952;28;20034;-71
2023/06/09 03:19:56;;;;;;;9.40;3.75;;;;;;;14.67;84.42;101331.50;4990634;28;20540;-71
2023/06/09 03:22:22;;;;;;;12.82;4.80;;;;;;;14.62;84.67;101323.31;5007952;28;20068;-71
2023/06/09 03:24:48;;;;;;;9.23;4.28;;;;;;;14.57;85.26;101328.47;5008035;28;20065;-71
2023/06/09 03:27:14;;;;;;;10.98;4.28;;;;;;;14.51;85.37;101323.91;5008127;28;20112;-71
2023/06/09 03:29:40;;;;;;;16.40;5.63;;;;;;;14.48;85.60;101320.59;5008681;28;20040;-71
2023/06/09 03:32:06;;;;;;;8.82;3.90;;;;;;;14.45;86.07;101330.94;5011497;28;20092;-71
2023/06/09 03:34:31;;;;;;;12.18;4.78;;;;;;;14.45;85.56;101325.56;5011564;28;20088;-71
2023/06/09 03:36:57;;;;;;;10.80;3.55;;;;;;;14.40;85.99;101320.00;5011532;28;20040;-71
2023/06/09 03:39:22;;;;;;;12.20;5.13;;;;;;;14.36;86.81;101338.41;5011343;28;20032;-71
2023/06/09 03:41:48;;;;;;;14.02;5.28;;;;;;;14.38;86.86;101344.38;4993674;28;20034;-71
2023/06/09 03:44:13;;;;;;;9.57;4.45;;;;;;;14.39;86.81;101346.03;5011174;28;20033;-71
2023/06/09 03:46:38;;;;;;;18.73;5.50;;;;;;;14.38;87.08;101344.38;5011335;28;20026;-71
2023/06/09 03:49:04;;;;;;;15.65;5.55;;;;;;;14.35;86.74;101346.66;5011375;28;20076;-71
2023/06/09 03:51:30;;;;;;;11.68;4.28;;;;;;;14.38;87.32;101355.13;5011137;28;20038;-71
2023/06/09 03:53:55;;;;;;;9.88;5.43;;;;;;;14.45;87.23;101355.09;5008667;28;20210;-71
2023/06/09 03:56:20;;;;;;;18.60;4.40;;;;;;;14.50;86.70;101344.56;4992248;28;20065;-71
2023/06/09 03:58:46;;;;;;;14.23;4.38;;;;;;;14.49;87.20;101356.34;4975010;28;20038;-71
2023/06/09 04:01:12;;;;;;;10.52;4.97;;;;;;;14.54;87.19;101350.34;4992380;28;20034;-71
2023/06/09 04:03:38;;;;;;;12.50;4.32;;;;;;;14.48;87.04;101339.38;4974820;28;20100;-71
2023/06/09 04:06:03;;;;;;;14.65;5.18;;;;;;;14.54;87.16;101343.16;4992058;28;20038;-71
2023/06/09 04:08:29;;;;;;;11.18;4.10;;;;;;;14.56;87.15;101348.28;4992261;28;20026;-71
2023/06/09 04:10:55;;;;;;;11.15;4.80;;;;;;;14.57;88.41;101363.38;4992091;28;20038;-71
2023/06/09 04:13:20;;;;;;;12.68;5.22;;;;;;;14.57;87.30;101341.91;4992236;28;20105;-71
2023/06/09 04:15:45;;;;;;;17.02;5.43;;;;;;;14.67;87.46;101340.41;4992206;28;20034;-71
2023/06/09 04:18:11;;;;;;;13.98;5.07;;;;;;;14.74;86.90;101344.94;4991931;28;20050;-71
2023/06/09 04:20:36;;;;;;;15.93;5.38;;;;;;;14.57;87.23;101325.78;4992032;28;20109;-71
2023/06/09 04:23:02;;;;;;;12.45;5.97;;;;;;;14.74;87.53;101353.81;4991840;28;20030;-71
2023/06/09 04:25:27;;;;;;;9.88;4.25;;;;;;;14.81;86.94;101349.25;4991715;28;20038;-71
2023/06/09 04:27:53;;;;;;;10.52;4.85;;;;;;;14.89;86.92;101342.81;4991827;28;20496;-71
2023/06/09 04:30:25;;;;;;;11.35;4.30;;;;;;;14.93;86.70;101357.44;4991802;28;20452;-71
2023/06/09 04:32:54;;;;;;;8.82;4.47;;;;;;;14.93;86.98;101345.88;4991642;28;20030;-71
2023/06/09 04:35:23;;;;;;;12.93;5.35;;;;;;;15.04;86.60;101364.03;4974336;28;20366;-71
2023/06/09 04:37:51;;;;;;;12.15;5.10;;;;;;;15.06;86.57;101354.72;4991669;28;20038;-71
2023/06/09 04:40:25;;;;;;;13.68;5.68;;;;;;;15.10;86.66;101355.13;4991380;28;20420;-71
2023/06/09 04:42:52;;;;;;;14.82;5.43;;;;;;;15.16;86.60;101359.63;4991376;28;20026;-71
2023/06/09 04:45:25;;;;;;;13.68;5.80;;;;;;;15.24;86.43;101364.75;4991518;28;20034;-71
2023/06/09 04:47:50;;;;;;;12.13;5.05;;;;;;;15.26;86.53;101356.47;4991721;28;20034;-71
2023/06/09 04:50:16;;;;;;;14.10;5.88;;;;;;;15.30;86.45;101363.06;4991316;28;20060;-71
2023/06/09 04:52:43;;;;;;;14.20;5.25;;;;;;;15.33;86.47;101363.47;4973731;28;20031;-71
2023/06/09 04:55:09;;;;;;;12.45;5.82;;;;;;;15.37;86.47;101355.78;4973922;28;20062;-71
2023/06/09 04:57:36;;;;;;;15.18;5.03;;;;;;;15.42;85.79;101352.44;4991270;28;20060;-71
2023/06/09 05:00:03;;;;;;;11.95;4.57;;;;;;;15.51;86.03;101357.38;4973618;28;20026;-71
2023/06/09 05:02:29;;;;;;;12.57;5.00;;;;;;;15.56;85.73;101360.22;4990967;28;20101;-71
2023/06/09 05:04:54;;;;;;;13.15;4.63;;;;;;;15.60;86.21;101363.28;4957351;28;20030;-71
2023/06/09 05:07:19;;;;;;;16.83;6.05;;;;;;;15.67;86.39;101360.56;5001076;28;20038;-71
2023/06/09 05:09:45;;;;;;;15.48;5.60;;;;;;;15.76;85.01;101370.84;4992090;28;20063;-71
2023/06/09 05:12:10;;;;;;;17.70;6.20;;;;;;;15.81;85.44;101366.69;5010088;28;20399;-71
2023/06/09 05:14:35;;;;;;;19.05;7.03;;;;;;;15.84;85.65;101358.19;4998904;28;20030;-71
2023/06/09 05:17:02;;;;;;;14.63;4.60;;;;;;;15.89;85.09;101361.88;5002501;28;20044;-71
2023/06/09 05:19:27;;;;;;;17.23;6.00;;;;;;;16.03;84.79;101373.31;5008877;28;20052;-71
2023/06/09 05:21:55;;;;;;;11.70;5.47;;;;;;;16.03;84.85;101369.81;4992160;28;20058;-71
2023/06/09 05:24:20;;;;;;;14.82;5.05;;;;;;;16.08;85.21;101375.38;4981130;28;20061;-71
2023/06/09 05:26:46;;;;;;;11.82;5.28;;;;;;;16.05;84.79;101379.31;4991033;28;20034;-71
2023/06/09 05:29:11;;;;;;;12.27;5.13;;;;;;;16.10;84.64;101373.28;4990832;28;20045;-71
2023/06/09 05:31:37;;;;;;;15.40;5.95;;;;;;;16.12;84.57;101369.34;4973309;28;20129;-70
2023/06/09 05:34:02;;;;;;;17.20;6.25;;;;;;;16.21;85.70;101378.75;4973068;28;20114;-71
2023/06/09 05:36:27;;;;;;;14.98;4.80;;;;;;;16.27;85.15;101374.38;4990926;28;20053;-71
2023/06/09 05:38:53;;;;;;;13.32;5.43;;;;;;;16.35;84.65;101376.78;4973347;28;20106;-71
2023/06/09 05:41:18;;;;;;;13.68;5.82;;;;;;;16.40;84.83;101373.41;4973232;28;20049;-70
2023/06/09 05:43:44;;;;;;;11.75;5.88;;;;;;;16.54;84.84;101372.25;4957035;28;20030;-70
2023/06/09 05:46:09;;;;;;;16.08;5.88;;;;;;;16.61;84.78;101372.16;4984353;28;20076;-71
2023/06/09 05:48:34;;;;;;;15.80;5.90;;;;;;;16.71;84.46;101377.03;4991420;28;20029;-70
2023/06/09 05:51:00;;;;;;;17.30;7.00;;;;;;;16.77;83.59;101376.16;4998967;28;20042;-70
2023/06/09 05:53:25;;;;;;;15.10;7.22;;;;;;;17.07;82.44;101384.28;4972217;28;20030;-70
2023/06/09 05:55:53;;;;;;;14.93;5.80;;;;;;;17.36;81.77;101379.97;4990429;28;20026;-70
2023/06/09 05:58:18;;;;;;;12.57;5.35;;;;;;;17.74;80.49;101370.72;4972672;28;20026;-70
2023/06/09 06:00:44;;;;;;;14.27;6.43;;;;;;;17.95;79.08;101374.78;5004631;28;20145;-71
2023/06/09 06:03:11;;;;;;;15.18;5.57;;;;;;;17.89;78.90;101370.28;5001053;28;20030;-70
2023/06/09 06:05:36;;;;;;;12.48;5.20;;;;;;;17.70;79.35;101367.63;4973488;28;20030;-71
2023/06/09 06:08:02;;;;;;;15.77;6.20;;;;;;;17.55;80.46;101379.91;5009161;28;20080;-71
2023/06/09 06:10:27;;;;;;;13.90;5.78;;;;;;;17.49;81.69;101370.88;4991368;28;20038;-70
2023/06/09 06:12:53;;;;;;;11.95;5.72;;;;;;;17.41;81.32;101369.31;4985206;28;20449;-71
2023/06/09 06:15:20;;;;;;;13.00;6.25;;;;;;;17.41;82.44;101376.59;4956801;28;20088;-71
2023/06/09 06:17:46;;;;;;;16.95;7.30;;;;;;;17.43;82.34;101371.81;4996682;28;20117;-71
2023/06/09 06:20:14;;;;;;;12.73;5.53;;;;;;;17.46;82.65;101376.72;4991560;28;20120;-71
2023/06/09 06:22:41;;;;;;;21.15;7.40;;;;;;;17.46;82.46;101382.94;5008948;28;20941;-71
2023/06/09 06:25:07;;;;;;;18.08;6.57;;;;;;;17.51;83.08;101371.47;5008320;28;20041;-72
2023/06/09 06:27:32;;;;;;;14.80;6.88;;;;;;;17.57;83.95;101372.41;4991111;28;20035;-71
2023/06/09 06:29:58;;;;;;;15.20;7.18;;;;;;;17.68;83.38;101366.22;4990841;28;20026;-72
2023/06/09 06:32:25;;;;;;;16.27;8.10;;;;;;;17.73;82.84;101363.66;4999811;28;20087;-70
2023/06/09 06:34:50;;;;;;;16.33;8.25;;;;;;;17.73;83.02;101372.56;4976820;28;20045;-75
2023/06/09 06:37:15;;;;;;;14.75;7.53;;;;;;;17.80;84.16;101369.81;4994056;28;20068;-75
2023/06/09 06:39:41;;;;;;;19.42;8.93;;;;;;;17.88;83.91;101371.34;4994131;28;20061;-75
2023/06/09 06:42:06;;;;;;;16.58;7.85;;;;;;;17.99;83.63;101375.13;4991076;28;20075;-72
2023/06/09 06:44:32;;;;;;;17.40;8.25;;;;;;;18.07;83.24;101377.47;4998731;28;20481;-72
2023/06/09 06:46:57;;;;;;;20.52;9.40;;;;;;;18.10;83.52;101375.16;5008587;28;20026;-72
2023/06/09 06:49:22;;;;;;;17.40;7.82;;;;;;;18.15;83.57;101377.13;5000996;28;20035;-72
2023/06/09 06:51:48;;;;;;;19.38;8.02;;;;;;;18.23;83.82;101376.75;4989769;28;20034;-72
2023/06/09 06:54:15;;;;;;;17.23;8.68;;;;;;;18.20;83.20;101368.31;4989573;28;20040;-72
2023/06/09 06:56:41;;;;;;;17.83;9.70;;;;;;;18.31;82.65;101379.13;4989943;28;20053;-71
2023/06/09 06:59:06;;;;;;;18.40;8.68;;;;;;;18.43;82.94;101372.91;5000210;28;20034;-71
2023/06/09 07:01:33;;;;;;;23.70;10.02;;;;;;;18.47;82.50;101374.91;4989759;28;20027;-72
2023/06/09 07:03:58;;;;;;;17.40;8.60;;;;;;;18.52;82.68;101374.16;4989952;28;20084;-72
2023/06/09 07:06:24;;;;;;;17.45;8.43;;;;;;;18.63;82.78;101378.75;4976017;28;20288;-72
2023/06/09 07:08:50;;;;;;;21.77;9.48;;;;;;;18.68;82.34;101361.81;4993397;28;20038;-72
2023/06/09 07:11:15;;;;;;;19.10;8.63;;;;;;;18.77;81.96;101376.63;4993590;28;20061;-72
2023/06/09 07:13:41;;;;;;;17.88;8.45;;;;;;;18.85;81.40;101370.03;4993273;28;20969;-72
2023/06/09 07:16:06;;;;;;;16.13;8.98;;;;;;;18.90;82.13;101370.16;4993185;28;20117;-72
2023/06/09 07:18:33;;;;;;;15.90;9.18;;;;;;;18.94;80.73;101372.13;4993162;28;20361;-72
2023/06/09 07:20:58;;;;;;;17.27;9.30;;;;;;;19.01;81.66;101367.41;4993014;28;20058;-72
2023/06/09 07:23:23;;;;;;;28.40;9.48;;;;;;;19.12;81.50;101368.41;4992854;28;20089;-72
2023/06/09 07:25:48;;;;;;;22.10;10.60;;;;;;;19.22;80.78;101373.19;4975711;28;20521;-72
2023/06/09 07:28:14;;;;;;;20.45;9.35;;;;;;;19.30;80.25;101372.00;4978471;28;20393;-72
2023/06/09 07:30:42;;;;;;;19.83;11.27;;;;;;;19.33;80.26;101366.09;5005593;28;20469;-72
2023/06/09 07:33:08;;;;;;;18.63;9.00;;;;;;;19.40;79.41;101362.19;4975008;28;20022;-73
2023/06/09 07:35:34;;;;;;;16.23;9.13;;;;;;;19.45;79.86;101367.69;4992089;28;20019;-72
2023/06/09 07:38:00;;;;;;;20.52;10.73;;;;;;;19.55;79.10;101364.34;4992789;28;20037;-72
2023/06/09 07:40:26;;;;;;;16.15;9.73;;;;;;;19.65;79.93;101375.34;4992168;28;20049;-72
2023/06/09 07:42:52;;;;;;;19.08;9.98;;;;;;;19.75;80.27;101377.41;4992431;28;20034;-72
2023/06/09 07:45:18;;;;;;;17.48;9.40;;;;;;;19.87;80.04;101367.34;4992868;28;20034;-72
2023/06/09 07:47:43;;;;;;;20.23;11.25;;;;;;;19.97;78.16;101368.59;4992525;28;20045;-72
2023/06/09 07:50:09;;;;;;;21.77;10.60;;;;;;;20.02;78.45;101377.59;4992601;28;20465;-72
2023/06/09 07:52:37;;;;;;;23.77;11.95;;;;;;;20.15;78.29;101368.34;4992247;28;20118;-72
2023/06/09 07:55:03;;;;;;;20.42;9.95;;;;;;;20.28;76.80;101364.47;4992222;28;20030;-73
2023/06/09 07:57:28;;;;;;;19.38;10.35;;;;;;;20.37;76.51;101368.38;4992614;28;20035;-73
2023/06/09 07:59:53;;;;;;;17.58;9.77;;;;;;;20.51;76.86;101369.66;5008967;28;20037;-72
2023/06/09 08:02:19;;;;;;;18.77;11.00;;;;;;;20.62;76.41;101367.94;5011051;28;20136;-72
2023/06/09 08:04:45;;;;;;;19.85;9.40;;;;;;;20.73;76.09;101364.28;4993555;28;20071;-73
2023/06/09 08:07:10;;;;;;;19.23;9.88;;;;;;;20.83;74.92;101366.31;5011106;28;20444;-72
2023/06/09 08:09:35;;;;;;;20.58;10.35;;;;;;;20.92;75.17;101372.91;5008574;28;20037;-75
2023/06/09 08:12:01;;;;;;;22.95;11.32;;;;;;;21.21;73.87;101369.97;4992316;28;20050;-75
2023/06/09 08:14:27;;;;;;;16.15;9.57;;;;;;;22.17;72.86;101358.34;4992482;28;20026;-75
2023/06/09 08:16:52;;;;;;;17.00;9.75;;;;;;;24.48;62.64;101352.31;4991835;28;20034;-76
2023/06/09 08:19:17;;;;;;;18.05;10.52;;;;;;;27.04;54.02;101369.34;4958356;28;20046;-76
2023/06/09 08:21:43;;;;;;;20.17;10.40;;;;;;;28.52;49.58;101359.78;4974508;28;20085;-75
2023/06/09 08:24:10;;;;;;;15.25;10.07;;;;;;;29.63;45.10;101372.16;4974723;28;20034;-75
2023/06/09 08:26:36;;;;;;;18.60;9.90;;;;;;;30.47;43.15;101367.78;4992278;28;20030;-76
2023/06/09 08:29:02;;;;;;;17.08;10.45;;;;;;;31.19;41.22;101368.41;4992020;28;20026;-76
2023/06/09 08:31:28;;;;;;;18.67;9.48;;;;;;;31.18;41.19;101366.78;4991989;28;20425;-76
2023/06/09 08:33:54;;;;;;;20.20;10.32;;;;;;;31.54;39.83;101368.41;4992251;28;20022;-75
2023/06/09 08:36:20;;;;;;;18.48;10.63;;;;;;;32.02;38.07;101359.09;4991708;28;20562;-76
2023/06/09 08:38:46;;;;;;;21.48;10.90;;;;;;;32.11;38.83;101365.38;5010643;28;20030;-76
2023/06/09 08:41:14;;;;;;;16.60;9.85;;;;;;;31.79;38.35;101364.78;5010540;28;20461;-76
2023/06/09 08:43:40;;;;;;;15.20;8.85;;;;;;;31.98;38.19;101355.34;5010246;28;20025;-75
2023/06/09 08:46:10;;;;;;;19.27;10.43;;;;;;;32.81;38.69;101365.03;5010307;28;20026;-76
2023/06/09 08:48:39;;;;;;;17.10;9.38;;;;;;;32.97;37.33;101361.34;5010098;28;20473;-75
2023/06/09 08:51:05;;;;;;;13.70;8.57;;;;;;;32.94;35.75;101362.00;5010319;28;20051;-75
2023/06/09 08:53:31;;;;;;;19.17;10.70;;;;;;;32.94;35.55;101353.72;5010329;28;20076;-76
2023/06/09 08:55:59;;;;;;;16.88;8.75;;;;;;;33.38;35.36;101353.41;5010413;28;20505;-76
2023/06/09 08:58:25;;;;;;;17.67;9.23;;;;;;;33.28;36.00;101354.63;5001736;28;20028;-75
2023/06/09 09:00:52;;;;;;;17.73;9.27;;;;;;;33.82;35.03;101354.59;4973810;28;20052;-76
2023/06/09 09:03:18;;;;;;;12.63;8.18;;;;;;;33.24;35.45;101352.84;4991522;28;20038;-76
2023/06/09 09:05:44;;;;;;;15.82;9.00;;;;;;;31.82;37.37;101358.63;4991175;28;20378;-76
2023/06/09 09:08:11;;;;;;;14.85;9.70;;;;;;;29.80;41.20;101359.66;4991235;28;20430;-76
2023/06/09 09:10:38;;;;;;;14.45;8.88;;;;;;;28.42;43.79;101345.09;4991124;28;20026;-76
2023/06/09 09:13:08;;;;;;;16.75;9.73;;;;;;;27.57;46.92;101349.13;4973981;28;20038;-75
2023/06/09 09:15:33;;;;;;;16.05;8.57;;;;;;;27.05;49.36;101345.50;4991236;28;20022;-75
2023/06/09 09:17:58;;;;;;;14.48;8.32;;;;;;;26.78;50.50;101343.41;4990938;28;20096;-75
2023/06/09 09:20:34;;;;;;;15.07;8.82;;;;;;;26.50;49.65;101343.19;5000722;28;20096;-76
2023/06/09 09:23:02;;;;;;;13.98;8.15;;;;;;;26.24;49.85;101340.72;4990465;28;20485;-75
2023/06/09 09:25:28;;;;;;;13.50;8.38;;;;;;;25.96;50.60;101345.13;4990822;28;20030;-75
2023/06/09 09:28:05;;;;;;;13.27;8.35;;;;;;;25.81;50.88;101339.78;4973516;28;20037;-75
2023/06/09 09:30:44;;;;;;;16.77;9.88;;;;;;;25.75;52.06;101327.25;4990600;28;20022;-75
2023/06/09 09:33:11;;;;;;;16.65;8.60;;;;;;;25.59;52.11;101323.84;4990866;28;20433;-75
2023/06/09 09:35:43;;;;;;;17.58;7.82;;;;;;;25.56;53.24;101333.41;4990778;28;20032;-75
2023/06/09 09:38:14;;;;;;;14.25;7.93;;;;;;;25.56;51.66;101333.41;4990792;28;20071;-75
2023/06/09 09:40:47;;;;;;;16.27;9.50;;;;;;;25.58;53.06;101331.22;4990981;28;20191;-75
2023/06/09 09:43:14;;;;;;;13.00;8.38;;;;;;;25.58;51.63;101323.03;4990670;28;20026;-75
2023/06/09 09:45:42;;;;;;;14.88;9.57;;;;;;;25.55;52.00;101325.53;4990703;28;20030;-75
2023/06/09 09:48:13;;;;;;;16.70;9.02;;;;;;;25.52;52.09;101326.91;4990397;28;20053;-75
2023/06/09 09:50:40;;;;;;;15.70;9.02;;;;;;;25.53;52.39;101328.53;4990762;28;21145;-75
2023/06/09 09:53:06;;;;;;;12.95;8.80;;;;;;;25.62;53.35;101317.78;4990601;28;20076;-75
2023/06/09 09:55:34;;;;;;;15.45;8.77;;;;;;;25.79;55.04;101318.19;4990179;28;20182;-75
2023/06/09 09:58:03;;;;;;;14.38;9.52;;;;;;;25.82;51.38;101318.72;4972746;28;20034;-75
2023/06/09 10:00:29;;;;;;;14.52;9.25;;;;;;;25.79;51.83;101326.41;4990151;28;20030;-76
2023/06/09 10:03:00;;;;;;;15.43;9.52;;;;;;;25.84;52.59;101320.09;4990283;28;20026;-76
2023/06/09 10:05:30;;;;;;;17.83;9.57;;;;;;;25.80;52.06;101328.00;4990337;28;20030;-75
2023/06/09 10:08:00;;;;;;;11.77;8.40;;;;;;;25.75;51.64;101325.34;4990386;28;20054;-76
2023/06/09 10:10:26;;;;;;;12.30;7.47;;;;;;;25.72;50.82;101317.72;4990559;28;20022;-75
2023/06/09 10:12:52;;;;;;;13.10;7.65;;;;;;;25.85;51.11;101307.25;4990494;28;20129;-75
2023/06/09 10:15:19;;;;;;;13.80;8.45;;;;;;;25.96;51.81;101309.59;4972635;28;20037;-75
2023/06/09 10:17:47;;;;;;;14.93;8.27;;;;;;;26.12;52.17;101312.16;4990293;28;20038;-75
2023/06/09 10:20:14;;;;;;;13.75;8.32;;;;;;;26.12;51.43;101304.78;4990104;28;20034;-75
2023/06/09 10:22:40;;;;;;;18.85;8.10;;;;;;;26.23;51.19;101300.81;4972783;28;20153;-76
2023/06/09 10:25:08;;;;;;;11.02;7.18;;;;;;;26.24;49.40;101309.84;4972624;28;20133;-75
2023/06/09 10:27:34;;;;;;;12.65;7.80;;;;;;;26.16;49.99;101300.34;4989943;28;20614;-75
2023/06/09 10:30:01;;;;;;;14.30;8.20;;;;;;;26.21;50.02;101304.94;4989968;28;20030;-75
2023/06/09 10:32:29;;;;;;;12.27;7.90;;;;;;;26.26;47.89;101302.16;4990007;28;20070;-75
2023/06/09 10:34:56;;;;;;;11.07;7.97;;;;;;;26.24;48.52;101296.16;4990421;28;20125;-75
2023/06/09 10:37:32;;;;;;;11.98;8.30;;;;;;;26.48;49.96;101296.13;4989997;28;20030;-75
2023/06/09 10:40:20;;;;;;;14.10;8.90;;;;;;;26.53;48.18;101293.38;4992332;28;20034;-75
2023/06/09 10:43:01;;;;;;;12.43;7.93;;;;;;;26.65;50.14;101304.72;4993558;28;20096;-76
2023/06/09 10:45:56;;;;;;;13.77;8.82;;;;;;;26.69;47.97;101295.91;4994052;28;20720;-75
2023/06/09 10:48:41;;;;;;;12.60;7.25;;;;;;;26.70;48.85;101286.56;4994899;28;20042;-75
2023/06/09 10:51:26;;;;;;;13.65;8.77;;;;;;;26.73;48.90;101286.03;4993755;28;20026;-75
2023/06/09 10:54:24;;;;;;;13.43;8.00;;;;;;;26.96;49.77;101282.41;4993709;28;20036;-74
2023/06/09 10:56:54;;;;;;;12.13;6.57;;;;;;;27.01;47.82;101287.78;4985152;28;20041;-75
2023/06/09 10:59:25;;;;;;;9.35;6.50;;;;;;;27.20;46.18;101287.00;4993915;28;20034;-74
2023/06/09 11:02:02;;;;;;;11.70;7.07;;;;;;;27.25;47.78;101279.50;4996966;28;20128;-71
2023/06/09 11:04:45;;;;;;;10.00;7.28;;;;;;;27.23;45.24;101281.72;4995416;28;20038;-74
2023/06/09 11:07:28;;;;;;;10.50;7.28;;;;;;;27.21;45.36;101275.72;4996133;28;20037;-74
2023/06/09 11:09:56;;;;;;;14.07;7.47;;;;;;;27.31;44.46;101270.09;4997410;28;20060;-76
2023/06/09 11:12:24;;;;;;;11.90;6.88;;;;;;;27.39;43.67;101276.81;4980048;28;20531;-77
2023/06/09 11:14:56;;;;;;;12.30;6.45;;;;;;;27.32;43.35;101274.44;4996754;28;20592;-71
2023/06/09 11:17:26;;;;;;;12.52;6.68;;;;;;;27.34;44.97;101270.59;4997905;28;20049;-71
2023/06/09 11:20:14;;;;;;;11.52;8.02;;;;;;;27.38;45.16;101263.41;4997615;28;20030;-70
2023/06/09 11:22:49;;;;;;;11.02;7.38;;;;;;;27.44;45.68;101268.50;4997070;28;20048;-70
2023/06/09 11:25:14;;;;;;;10.23;6.75;;;;;;;27.57;44.35;101266.09;4996886;28;20030;-72
2023/06/09 11:27:41;;;;;;;10.17;6.87;;;;;;;27.51;43.95;101265.38;4979995;28;20034;-75